Time;durP1;ratioP1;P1;durP2;ratioP2;P2;SDS_P1;SDS_P2;PMS_P1;PMS_P2;Temp;Humidity;BMP_temperature;BMP_pressure;BME280_temperature;BME280_humidity;BME280_pressure;Samples;Min_cycle;Max_cycle;Signal;HPM_P1;HPM_P2
2021/11/25 00:02:11;;;;;;;4.22;3.25;;;;;;;0.20;84.19;96622.48;1750653;81;21530;-81
2021/11/25 00:04:37;;;;;;;3.20;2.92;;;;;;;0.20;84.12;96619.92;1776504;81;20970;-81
2021/11/25 00:07:03;;;;;;;3.58;3.15;;;;;;;0.18;84.07;96610.28;1776595;81;21360;-81
2021/11/25 00:09:29;;;;;;;4.58;3.50;;;;;;;0.16;84.12;96608.73;1776500;81;21006;-81
2021/11/25 00:11:55;;;;;;;5.17;3.33;;;;;;;0.14;84.11;96599.91;1776507;81;20969;-81
2021/11/25 00:14:21;;;;;;;3.35;3.05;;;;;;;0.15;83.99;96600.25;1776628;81;20989;-81
2021/11/25 00:16:47;;;;;;;3.92;3.05;;;;;;;0.13;83.88;96600.02;1776515;81;21081;-81
2021/11/25 00:19:12;;;;;;;8.28;4.50;;;;;;;0.15;83.96;96604.55;1776434;81;21076;-81
2021/11/25 00:21:38;;;;;;;6.37;4.10;;;;;;;0.13;83.90;96601.30;1776493;81;21336;-81
2021/11/25 00:24:05;;;;;;;4.00;3.42;;;;;;;0.11;83.80;96594.21;1776508;81;20978;-81
2021/11/25 00:26:33;;;;;;;5.95;3.35;;;;;;;0.07;83.96;96593.63;1776405;81;21115;-82
2021/11/25 00:29:00;;;;;;;3.55;3.20;;;;;;;0.10;83.99;96589.56;1776171;81;21049;-81
2021/11/25 00:31:26;;;;;;;3.10;2.50;;;;;;;0.14;83.95;96587.13;1776524;81;21025;-81
2021/11/25 00:33:52;;;;;;;3.33;3.02;;;;;;;0.15;83.98;96585.39;1776400;81;21013;-81
2021/11/25 00:36:17;;;;;;;3.35;2.98;;;;;;;0.11;83.91;96580.16;1776510;81;21343;-81
2021/11/25 00:38:43;;;;;;;2.80;2.60;;;;;;;0.10;83.97;96583.64;1776485;81;21353;-81
2021/11/25 00:41:09;;;;;;;3.95;2.83;;;;;;;0.10;83.97;96575.52;1776324;81;20926;-81
2021/11/25 00:43:35;;;;;;;3.62;2.98;;;;;;;0.09;83.91;96579.00;1755265;81;20972;-81
2021/11/25 00:46:00;;;;;;;3.60;2.98;;;;;;;0.10;83.95;96572.14;1776541;81;21017;-81
2021/11/25 00:48:26;;;;;;;3.17;2.55;;;;;;;0.09;83.98;96566.69;1776644;81;20997;-81
2021/11/25 00:50:52;;;;;;;4.67;2.90;;;;;;;0.11;84.07;96564.83;1725513;81;21041;-81
2021/11/25 00:53:17;;;;;;;3.35;2.85;;;;;;;0.12;83.99;96557.52;1776456;81;21379;-81
2021/11/25 00:55:43;;;;;;;3.52;3.22;;;;;;;0.12;83.97;96559.60;1776439;81;21494;-81
2021/11/25 00:58:10;;;;;;;3.35;3.02;;;;;;;0.07;83.73;96556.58;1776414;81;21026;-82
2021/11/25 01:00:36;;;;;;;3.08;2.87;;;;;;;0.04;83.82;96552.17;1776777;81;21379;-81
2021/11/25 01:03:02;;;;;;;3.33;2.90;;;;;;;0.03;83.94;96545.43;1776461;81;21116;-81
2021/11/25 01:05:28;;;;;;;4.58;3.22;;;;;;;0.02;84.06;96545.08;1776639;81;21322;-81
2021/11/25 01:07:54;;;;;;;3.35;2.50;;;;;;;0.05;84.11;96544.85;1776673;81;21016;-81
2021/11/25 01:10:21;;;;;;;3.25;2.98;;;;;;;0.06;84.00;96533.23;1776958;81;20970;-81
2021/11/25 01:12:48;;;;;;;4.35;3.35;;;;;;;0.08;83.92;96528.02;1776644;81;20985;-81
2021/11/25 01:15:16;;;;;;;4.42;3.47;;;;;;;0.10;83.95;96527.43;1776776;81;21049;-81
2021/11/25 01:17:42;;;;;;;3.55;2.92;;;;;;;0.09;84.00;96519.42;1776872;81;20985;-81
2021/11/25 01:20:13;;;;;;;4.22;3.47;;;;;;;0.09;83.88;96519.42;1776844;81;20962;-81
2021/11/25 01:22:39;;;;;;;4.15;3.50;;;;;;;0.05;83.60;96516.28;1776560;81;21001;-81
2021/11/25 01:25:06;;;;;;;15.78;7.03;;;;;;;0.01;83.61;96509.78;1776559;81;20977;-81
2021/11/25 01:27:32;;;;;;;4.10;2.62;;;;;;;-0.05;83.55;96498.72;1776677;81;21025;-81
2021/11/25 01:29:57;;;;;;;28.35;14.30;;;;;;;-0.06;83.75;96494.08;1776764;81;21352;-82
2021/11/25 01:32:23;;;;;;;34.00;15.80;;;;;;;0.01;83.86;96494.45;1776732;81;21017;-81
2021/11/25 01:34:49;;;;;;;66.00;24.30;;;;;;;0.03;83.48;96504.55;1776688;81;21068;-81
2021/11/25 01:37:15;;;;;;;27.07;12.37;;;;;;;-0.01;83.18;96493.73;1776612;81;20989;-81
2021/11/25 01:39:41;;;;;;;7.58;4.08;;;;;;;-0.10;83.06;96489.31;1776547;81;21417;-81
2021/11/25 01:42:06;;;;;;;2.70;2.50;;;;;;;-0.17;83.33;96485.11;1774302;80;20969;-81
2021/11/25 01:44:32;;;;;;;6.08;3.67;;;;;;;-0.18;83.66;96486.03;1758804;81;21064;-81
2021/11/25 01:47:03;;;;;;;17.70;9.20;;;;;;;-0.13;83.79;96478.87;1776706;81;21399;-81
2021/11/25 01:49:29;;;;;;;18.50;9.65;;;;;;;-0.22;82.97;96479.53;1776517;81;20942;-81
2021/11/25 01:51:55;;;;;;;17.30;7.75;;;;;;;-0.27;83.07;96469.31;1776726;81;21020;-81
2021/11/25 01:54:21;;;;;;;10.25;6.85;;;;;;;-0.30;83.17;96467.80;1776767;81;21065;-81
2021/11/25 01:56:47;;;;;;;6.70;3.90;;;;;;;-0.32;83.41;96465.83;1776613;81;21009;-81
2021/11/25 01:59:13;;;;;;;3.00;2.42;;;;;;;-0.31;83.79;96462.35;1776511;81;20919;-81
2021/11/25 02:01:39;;;;;;;2.77;2.02;;;;;;;-0.29;83.99;96454.11;1776717;81;21004;-81
2021/11/25 02:04:05;;;;;;;2.30;2.10;;;;;;;-0.24;84.29;96453.77;1776713;81;21030;-81
2021/11/25 02:06:31;;;;;;;2.10;1.90;;;;;;;-0.17;84.20;96454.92;1776594;81;21033;-82
2021/11/25 02:08:57;;;;;;;1.75;1.65;;;;;;;-0.14;84.17;96444.50;1776581;81;21084;-81
2021/11/25 02:11:23;;;;;;;2.65;2.45;;;;;;;-0.13;84.28;96443.11;1776636;81;20993;-81
2021/11/25 02:13:49;;;;;;;3.80;2.25;;;;;;;-0.12;84.17;96434.98;1776644;81;20993;-81
2021/11/25 02:16:16;;;;;;;2.40;2.20;;;;;;;-0.13;84.10;96435.45;1776365;81;20962;-81
2021/11/25 02:18:41;;;;;;;10.23;5.22;;;;;;;-0.14;83.89;96433.02;1776798;81;20962;-81
2021/11/25 02:21:07;;;;;;;21.70;9.18;;;;;;;-0.20;83.47;96432.98;1776797;81;20946;-81
2021/11/25 02:23:33;;;;;;;54.15;17.52;;;;;;;-0.24;83.26;96430.78;1776394;81;20981;-81
2021/11/25 02:25:59;;;;;;;72.10;24.07;;;;;;;-0.31;83.26;96425.33;1776864;81;20981;-81
2021/11/25 02:28:29;;;;;;;29.52;13.43;;;;;;;-0.35;83.18;96418.80;1776471;80;21377;-81
2021/11/25 02:30:55;;;;;;;13.53;5.78;;;;;;;-0.40;83.09;96419.15;1776832;81;20966;-81
2021/11/25 02:33:20;;;;;;;3.70;3.15;;;;;;;-0.43;83.25;96410.45;1776717;81;20997;-81
2021/11/25 02:35:46;;;;;;;2.90;2.33;;;;;;;-0.44;83.73;96408.01;1776587;81;21040;-81
2021/11/25 02:38:12;;;;;;;2.50;2.30;;;;;;;-0.43;83.83;96401.98;1776605;81;21002;-81
2021/11/25 02:40:44;;;;;;;2.37;2.17;;;;;;;-0.41;83.82;96406.03;1776840;81;20998;-81
2021/11/25 02:43:13;;;;;;;2.42;2.10;;;;;;;-0.40;83.76;96404.30;1775656;81;21480;-81
2021/11/25 02:45:56;;;;;;;2.72;2.50;;;;;;;-0.38;83.78;96404.99;1776654;81;20954;-81
2021/11/25 02:48:29;;;;;;;2.08;1.95;;;;;;;-0.38;83.72;96387.93;1776810;81;21013;-81
2021/11/25 02:50:56;;;;;;;2.80;2.20;;;;;;;-0.34;83.65;96384.22;1775884;81;20966;-81
2021/11/25 02:53:25;;;;;;;2.50;2.30;;;;;;;-0.35;83.58;96377.48;1776665;81;20957;-81
2021/11/25 02:56:01;;;;;;;2.10;2.00;;;;;;;-0.33;83.46;96379.92;1776736;81;21140;-81
2021/11/25 02:58:27;;;;;;;2.45;2.20;;;;;;;-0.33;83.48;96374.81;1776437;81;21092;-81
2021/11/25 03:00:55;;;;;;;2.55;2.35;;;;;;;-0.31;83.60;96372.98;1776490;81;21009;-81
2021/11/25 03:03:21;;;;;;;2.40;2.20;;;;;;;-0.33;83.44;96366.72;1771735;81;21032;-81
2021/11/25 03:05:49;;;;;;;2.77;2.40;;;;;;;-0.33;83.43;96364.17;1762284;81;20957;-82
2021/11/25 03:08:16;;;;;;;2.45;2.10;;;;;;;-0.28;83.41;96359.17;1742478;82;21061;-81
2021/11/25 03:10:52;;;;;;;2.60;2.40;;;;;;;-0.26;83.28;96358.13;1742380;82;21004;-81
2021/11/25 03:13:22;;;;;;;3.05;2.15;;;;;;;-0.28;83.04;96359.98;1742507;82;20957;-81
2021/11/25 03:15:48;;;;;;;3.02;2.72;;;;;;;-0.30;83.05;96359.29;1742273;82;21075;-81
2021/11/25 03:18:15;;;;;;;2.85;2.55;;;;;;;-0.29;83.00;96354.53;1742495;82;21502;-81
2021/11/25 03:20:48;;;;;;;3.25;2.95;;;;;;;-0.32;82.86;96356.86;1742536;82;21028;-82
2021/11/25 03:23:17;;;;;;;6.28;3.52;;;;;;;-0.28;82.90;96360.45;1742305;82;21390;-81
2021/11/25 03:25:43;;;;;;;5.40;3.25;;;;;;;-0.29;82.60;96351.16;1742516;82;21028;-81
2021/11/25 03:28:09;;;;;;;2.85;2.52;;;;;;;-0.33;82.53;96347.58;1740467;82;21017;-81
2021/11/25 03:30:35;;;;;;;3.90;2.50;;;;;;;-0.37;82.55;96344.88;1739003;82;21009;-81
2021/11/25 03:33:02;;;;;;;2.60;2.40;;;;;;;-0.36;82.64;96340.12;1738861;82;21032;-81
2021/11/25 03:35:28;;;;;;;4.08;2.90;;;;;;;-0.34;82.71;96338.72;1739024;82;21032;-81
2021/11/25 03:37:54;;;;;;;6.62;5.05;;;;;;;-0.33;82.56;96342.47;1739275;82;20968;-81
2021/11/25 03:40:20;;;;;;;3.17;2.87;;;;;;;-0.35;82.33;96338.38;1738912;82;20961;-81
2021/11/25 03:42:46;;;;;;;3.70;2.80;;;;;;;-0.38;82.30;96330.49;1739223;82;20992;-81
2021/11/25 03:45:12;;;;;;;3.12;2.70;;;;;;;-0.42;82.40;96329.11;1739025;82;21378;-81
2021/11/25 03:47:40;;;;;;;3.37;3.00;;;;;;;-0.42;82.45;96327.83;1738622;82;21032;-81
2021/11/25 03:50:06;;;;;;;4.00;2.90;;;;;;;-0.43;82.37;96325.39;1739068;82;21006;-81
2021/11/25 03:52:32;;;;;;;2.65;2.45;;;;;;;-0.45;82.41;96325.52;1739071;82;20993;-81
2021/11/25 03:54:58;;;;;;;11.38;8.53;;;;;;;-0.47;82.54;96318.44;1739042;82;21132;-81
2021/11/25 03:57:24;;;;;;;5.28;4.40;;;;;;;-0.53;82.50;96319.34;1739140;82;21028;-81
2021/11/25 03:59:51;;;;;;;4.20;3.77;;;;;;;-0.51;82.61;96318.76;1738948;82;21104;-81
2021/11/25 04:02:17;;;;;;;4.12;3.50;;;;;;;-0.49;82.67;96309.24;1738827;82;21457;-81
2021/11/25 04:04:43;;;;;;;4.42;3.30;;;;;;;-0.47;82.64;96303.13;1751450;80;21017;-81
2021/11/25 04:07:09;;;;;;;4.95;3.17;;;;;;;-0.48;82.60;96301.50;1736927;81;21045;-81
2021/11/25 04:09:34;;;;;;;3.52;2.92;;;;;;;-0.46;82.57;96291.98;1772850;81;21352;-81
2021/11/25 04:12:00;;;;;;;4.85;4.25;;;;;;;-0.46;82.59;96283.52;1773040;81;21030;-81
2021/11/25 04:14:26;;;;;;;4.78;4.20;;;;;;;-0.50;82.44;96284.19;1772917;81;20993;-81
2021/11/25 04:16:53;;;;;;;5.35;4.75;;;;;;;-0.52;82.43;96283.95;1772923;81;21003;-81
2021/11/25 04:19:19;;;;;;;4.75;4.20;;;;;;;-0.51;82.56;96279.20;1773046;81;22025;-81
2021/11/25 04:21:45;;;;;;;5.50;4.17;;;;;;;-0.52;82.66;96275.02;1772949;81;21411;-81
2021/11/25 04:24:12;;;;;;;4.62;4.08;;;;;;;-0.57;82.51;96285.59;1772765;81;20982;-81
2021/11/25 04:26:39;;;;;;;5.72;4.58;;;;;;;-0.56;82.60;96277.47;1772935;81;21293;-82
2021/11/25 04:29:05;;;;;;;4.20;3.65;;;;;;;-0.57;82.52;96274.56;1775671;81;21116;-81
2021/11/25 04:37:00;;;;;;;4.12;3.80;;;;;;;-0.56;82.67;96273.17;1776555;81;21009;-81
2021/11/25 04:39:26;;;;;;;5.75;4.08;;;;;;;-0.55;82.75;96270.16;1776499;81;21040;-81
2021/11/25 04:41:54;;;;;;;5.30;3.90;;;;;;;-0.53;82.69;96264.00;1776455;81;20997;-81
2021/11/25 04:44:20;;;;;;;5.47;4.10;;;;;;;-0.53;82.61;96258.09;1776436;81;21005;-81
2021/11/25 04:46:46;;;;;;;4.45;3.25;;;;;;;-0.52;82.69;96253.33;1776207;81;21037;-81
2021/11/25 04:49:12;;;;;;;5.25;4.53;;;;;;;-0.51;82.63;96253.20;1776650;81;20958;-81
2021/11/25 04:51:38;;;;;;;5.97;4.70;;;;;;;-0.54;82.50;96248.34;1776624;81;21045;-81
2021/11/25 04:54:05;;;;;;;6.83;4.37;;;;;;;-0.59;82.45;96243.25;1776339;81;21148;-81
2021/11/25 04:56:31;;;;;;;6.53;4.00;;;;;;;-0.53;82.50;96242.77;1776586;81;21355;-81
2021/11/25 04:58:57;;;;;;;5.17;4.22;;;;;;;-0.54;82.49;96238.60;1776520;81;20965;-81
2021/11/25 05:01:23;;;;;;;4.70;3.80;;;;;;;-0.54;82.53;96235.58;1776842;81;21392;-81
2021/11/25 05:03:49;;;;;;;5.53;4.10;;;;;;;-0.55;82.47;96230.13;1769694;80;21145;-82
2021/11/25 05:06:15;;;;;;;5.80;3.98;;;;;;;-0.55;82.47;96224.22;1761281;81;21014;-81
2021/11/25 05:08:40;;;;;;;7.22;5.03;;;;;;;-0.53;82.49;96233.38;1776444;81;21349;-81
2021/11/25 05:11:06;;;;;;;5.65;4.47;;;;;;;-0.52;82.37;96221.42;1750283;81;21000;-81
2021/11/25 05:13:32;;;;;;;5.17;4.37;;;;;;;-0.50;82.32;96219.56;1776553;81;21042;-81
2021/11/25 05:15:58;;;;;;;4.83;3.85;;;;;;;-0.51;82.19;96207.27;1776627;81;20997;-81
2021/11/25 05:18:24;;;;;;;4.97;3.98;;;;;;;-0.53;81.99;96206.58;1776654;81;21046;-81
2021/11/25 05:20:50;;;;;;;4.97;3.62;;;;;;;-0.53;81.94;96205.30;1776409;81;21014;-81
2021/11/25 05:23:16;;;;;;;4.85;3.62;;;;;;;-0.56;81.94;96202.18;1776600;81;21400;-81
2021/11/25 05:25:41;;;;;;;5.20;4.00;;;;;;;-0.58;81.96;96195.92;1776267;81;21076;-81
2021/11/25 05:28:08;;;;;;;5.90;4.45;;;;;;;-0.57;81.85;96196.73;1775267;81;21030;-81
2021/11/25 05:30:34;;;;;;;5.58;4.45;;;;;;;-0.58;81.85;96194.64;1772869;81;21332;-81
2021/11/25 05:33:00;;;;;;;6.67;4.80;;;;;;;-0.54;81.65;96181.17;1772947;81;21068;-81
2021/11/25 05:35:26;;;;;;;7.33;5.53;;;;;;;-0.57;81.66;96184.78;1772777;81;21061;-82
2021/11/25 05:37:52;;;;;;;6.62;5.00;;;;;;;-0.56;81.57;96195.80;1772946;81;21364;-82
2021/11/25 05:40:18;;;;;;;5.92;4.20;;;;;;;-0.56;81.46;96190.70;1773258;81;20990;-82
2021/11/25 05:42:43;;;;;;;6.25;5.60;;;;;;;-0.55;81.41;96189.30;1773119;81;20993;-82
2021/11/25 05:45:12;;;;;;;5.78;4.65;;;;;;;-0.51;81.52;96191.95;1773048;81;21002;-81
2021/11/25 05:47:39;;;;;;;5.35;4.78;;;;;;;-0.49;81.35;96190.13;1773109;81;21073;-82
2021/11/25 05:50:12;;;;;;;4.10;3.27;;;;;;;-0.50;81.18;96185.11;1773326;81;21005;-82
2021/11/25 05:52:38;;;;;;;5.40;3.42;;;;;;;-0.51;81.04;96187.31;1772570;81;21002;-82
2021/11/25 05:55:06;;;;;;;3.77;3.37;;;;;;;-0.55;80.99;96182.11;1773038;81;21001;-82
2021/11/25 05:57:32;;;;;;;4.65;3.50;;;;;;;-0.53;80.90;96183.61;1773370;81;20982;-81
2021/11/25 05:59:58;;;;;;;4.87;3.62;;;;;;;-0.53;80.89;96181.06;1773104;81;21343;-82
2021/11/25 06:02:23;;;;;;;5.30;3.85;;;;;;;-0.56;80.63;96176.20;1773217;81;20978;-82
2021/11/25 06:04:49;;;;;;;4.25;3.55;;;;;;;-0.56;80.61;96175.38;1773183;81;21013;-82
2021/11/25 06:07:15;;;;;;;3.98;3.45;;;;;;;-0.56;80.28;96173.64;1773238;81;20977;-82
2021/11/25 06:09:42;;;;;;;17.10;12.63;;;;;;;-0.57;80.55;96171.21;1773204;81;20966;-82
2021/11/25 06:12:08;;;;;;;4.83;4.30;;;;;;;-0.63;80.55;96177.61;1773381;81;20969;-82
2021/11/25 06:14:34;;;;;;;5.78;5.28;;;;;;;-0.64;80.43;96165.78;1773274;81;21034;-81
2021/11/25 06:17:01;;;;;;;5.92;4.90;;;;;;;-0.66;80.26;96168.42;1773286;81;20969;-81
2021/11/25 06:19:27;;;;;;;5.80;4.95;;;;;;;-0.63;80.22;96172.50;1773448;81;21018;-82
2021/11/25 06:21:54;;;;;;;5.37;4.45;;;;;;;-0.61;80.23;96169.36;1773044;81;21320;-82
2021/11/25 06:24:19;;;;;;;4.40;3.95;;;;;;;-0.60;79.72;96169.71;1773241;81;21408;-82
2021/11/25 06:26:49;;;;;;;4.37;3.62;;;;;;;-0.61;79.88;96174.00;1773216;81;20985;-82
2021/11/25 06:29:13;;;;;;;5.03;3.87;;;;;;;-0.59;79.90;96182.00;1772616;81;21041;-82
2021/11/25 06:31:39;;;;;;;4.40;3.80;;;;;;;-0.56;79.80;96183.04;1772801;81;21057;-81
2021/11/25 06:34:05;;;;;;;5.42;4.03;;;;;;;-0.54;79.62;96176.88;1772855;81;21424;-81
2021/11/25 06:36:31;;;;;;;7.22;4.25;;;;;;;-0.54;79.51;96184.54;1772927;81;21088;-82
2021/11/25 06:38:57;;;;;;;7.47;4.87;;;;;;;-0.53;79.64;96180.25;1773261;81;21435;-82
2021/11/25 06:41:22;;;;;;;9.83;5.50;;;;;;;-0.54;79.61;96174.80;1743214;81;20934;-82
2021/11/25 06:43:48;;;;;;;7.03;5.62;;;;;;;-0.54;79.50;96179.90;1773254;81;20918;-82
2021/11/25 06:46:14;;;;;;;7.70;6.22;;;;;;;-0.54;79.43;96179.44;1773128;81;21007;-82
2021/11/25 06:48:40;;;;;;;9.53;6.58;;;;;;;-0.54;79.31;96182.45;1773165;81;21332;-82
2021/11/25 06:51:05;;;;;;;4.67;4.00;;;;;;;-0.54;79.19;96177.34;1743185;81;21468;-82
2021/11/25 06:53:31;;;;;;;9.70;5.12;;;;;;;-0.55;79.11;96180.83;1742847;81;21022;-82
2021/11/25 06:55:57;;;;;;;5.55;4.42;;;;;;;-0.56;79.06;96177.94;1773219;81;21375;-81
2021/11/25 06:58:23;;;;;;;5.00;4.30;;;;;;;-0.56;79.10;96179.21;1743186;81;21327;-82
2021/11/25 07:00:49;;;;;;;7.08;4.22;;;;;;;-0.57;79.11;96178.87;1773166;81;21013;-81
2021/11/25 07:03:14;;;;;;;6.17;4.58;;;;;;;-0.57;79.09;96171.21;1770773;80;21065;-82
2021/11/25 07:05:40;;;;;;;7.33;4.83;;;;;;;-0.55;78.94;96177.00;1753360;81;20923;-81
2021/11/25 07:08:07;;;;;;;7.22;5.75;;;;;;;-0.57;78.70;96175.84;1773339;81;21013;-82
2021/11/25 07:10:34;;;;;;;9.20;5.72;;;;;;;-0.56;78.86;96172.83;1773162;81;21033;-82
2021/11/25 07:12:59;;;;;;;6.28;4.83;;;;;;;-0.54;79.04;96168.42;1773435;81;21025;-82
2021/11/25 07:15:26;;;;;;;6.37;4.87;;;;;;;-0.54;79.08;96167.14;1773064;81;21088;-82
2021/11/25 07:17:53;;;;;;;7.65;4.97;;;;;;;-0.54;79.07;96169.69;1773049;81;21025;-82
2021/11/25 07:20:19;;;;;;;8.75;5.72;;;;;;;-0.55;78.81;96163.78;1772905;81;20942;-81
2021/11/25 07:22:46;;;;;;;8.13;5.62;;;;;;;-0.56;79.02;96171.55;1773097;81;21021;-81
2021/11/25 07:25:13;;;;;;;8.08;5.60;;;;;;;-0.58;79.02;96165.30;1773202;81;21396;-82
2021/11/25 07:27:40;;;;;;;8.58;6.35;;;;;;;-0.59;79.21;96165.42;1773160;81;21006;-82
2021/11/25 07:30:08;;;;;;;8.85;6.72;;;;;;;-0.64;79.31;96165.31;1776429;81;21097;-82
2021/11/25 07:32:34;;;;;;;9.05;7.33;;;;;;;-0.62;79.36;96163.92;1776708;81;20982;-82
2021/11/25 07:35:00;;;;;;;10.43;8.55;;;;;;;-0.63;79.37;96165.66;1776370;81;21078;-82
2021/11/25 07:37:26;;;;;;;11.78;8.33;;;;;;;-0.60;79.19;96154.40;1776725;81;21352;-81
2021/11/25 07:39:52;;;;;;;12.03;7.90;;;;;;;-0.60;79.35;96163.33;1750374;81;21428;-82
2021/11/25 07:42:17;;;;;;;12.98;7.65;;;;;;;-0.57;79.28;96156.71;1776770;81;21037;-82
2021/11/25 07:44:43;;;;;;;12.63;8.73;;;;;;;-0.55;79.46;96148.47;1776690;81;21005;-82
2021/11/25 07:47:09;;;;;;;23.47;14.90;;;;;;;-0.52;79.01;96149.50;1750435;81;21070;-82
2021/11/25 07:49:37;;;;;;;18.90;14.25;;;;;;;-0.53;78.27;96133.03;1776697;81;20922;-81
2021/11/25 07:52:03;;;;;;;30.45;19.32;;;;;;;-0.54;78.76;96128.86;1776442;81;21452;-82
2021/11/25 07:54:29;;;;;;;20.77;14.45;;;;;;;-0.53;78.68;96140.69;1776779;81;20966;-82
2021/11/25 07:56:57;;;;;;;25.08;17.27;;;;;;;-0.55;78.07;96133.16;1776690;81;20962;-82
2021/11/25 07:59:23;;;;;;;23.75;15.30;;;;;;;-0.54;78.12;96121.20;1776464;81;21050;-82
2021/11/25 08:01:49;;;;;;;24.60;16.35;;;;;;;-0.50;78.34;96123.85;1776708;81;20978;-82
2021/11/25 08:04:15;;;;;;;24.90;17.40;;;;;;;-0.54;78.09;96116.91;1776379;81;21076;-82
2021/11/25 08:06:40;;;;;;;21.80;14.87;;;;;;;-0.54;78.11;96114.82;1776634;81;20990;-82
2021/11/25 08:09:06;;;;;;;15.65;10.28;;;;;;;-0.47;77.46;96102.75;1767291;80;20977;-81
2021/11/25 08:11:32;;;;;;;24.65;15.68;;;;;;;-0.23;77.30;96099.98;1724588;82;20954;-81
2021/11/25 08:13:57;;;;;;;30.23;18.23;;;;;;;-0.04;77.87;96106.52;1745798;82;22145;-81
2021/11/25 08:16:23;;;;;;;29.30;19.50;;;;;;;-0.01;77.73;96106.73;1746005;82;21324;-82
2021/11/25 08:18:49;;;;;;;29.40;18.48;;;;;;;0.02;77.44;96108.26;1745952;82;21286;-81
2021/11/25 08:21:15;;;;;;;22.20;15.13;;;;;;;0.05;77.48;96107.53;1746079;82;21005;-82
2021/11/25 08:23:41;;;;;;;18.00;11.25;;;;;;;0.07;77.35;96111.24;1746083;82;20953;-81
2021/11/25 08:26:07;;;;;;;20.85;15.48;;;;;;;0.11;77.30;96108.78;1745974;82;21029;-81
2021/11/25 08:28:36;;;;;;;21.97;15.30;;;;;;;0.06;77.38;96109.62;1745807;82;21064;-81
2021/11/25 08:31:01;;;;;;;18.30;12.85;;;;;;;0.10;77.55;96108.44;1745797;82;21104;-82
2021/11/25 08:33:28;;;;;;;10.85;8.05;;;;;;;0.12;77.64;96099.70;1745658;82;21036;-82
2021/11/25 08:35:55;;;;;;;12.20;8.83;;;;;;;0.25;77.12;96099.53;1745844;82;21128;-82
2021/11/25 08:38:21;;;;;;;13.38;10.28;;;;;;;0.47;77.62;96100.66;1746076;82;21364;-82
2021/11/25 08:40:47;;;;;;;9.65;7.45;;;;;;;0.67;77.29;96102.87;1746138;82;20966;-82
2021/11/25 08:43:13;;;;;;;9.68;7.50;;;;;;;0.80;77.57;96100.88;1745769;82;20953;-82
2021/11/25 08:45:39;;;;;;;10.60;7.85;;;;;;;1.02;77.03;96096.07;1746036;82;21328;-82
2021/11/25 08:48:05;;;;;;;11.28;7.83;;;;;;;1.20;76.90;96094.50;1746043;82;20950;-82
2021/11/25 08:50:31;;;;;;;11.55;7.20;;;;;;;1.31;77.23;96105.12;1746095;82;20973;-82
2021/11/25 08:52:57;;;;;;;12.88;8.68;;;;;;;1.44;77.06;96108.69;1745984;82;20985;-82
2021/11/25 08:55:24;;;;;;;10.00;8.05;;;;;;;1.56;76.80;96096.12;1745836;82;21391;-82
2021/11/25 08:57:49;;;;;;;12.45;9.50;;;;;;;1.72;76.97;96089.19;1745999;82;21407;-82
2021/11/25 09:00:16;;;;;;;9.78;7.70;;;;;;;1.83;76.91;96092.91;1745981;82;20966;-82
2021/11/25 09:02:42;;;;;;;10.55;7.45;;;;;;;1.91;76.93;96090.47;1745981;82;20992;-82
2021/11/25 09:05:10;;;;;;;8.15;6.25;;;;;;;1.99;76.58;96077.00;1745914;82;21041;-82
2021/11/25 09:07:39;;;;;;;8.78;7.08;;;;;;;2.09;76.30;96080.34;1745995;82;21061;-82
2021/11/25 09:10:05;;;;;;;21.95;14.47;;;;;;;2.21;76.61;96078.44;1768606;80;20954;-82
2021/11/25 09:12:31;;;;;;;18.42;10.30;;;;;;;2.31;76.39;96071.08;1752722;81;21103;-82
2021/11/25 09:14:57;;;;;;;18.42;9.28;;;;;;;2.39;76.17;96071.19;1742590;82;21088;-82
2021/11/25 09:17:22;;;;;;;12.55;8.00;;;;;;;2.49;75.63;96057.55;1742623;82;20934;-82
2021/11/25 09:19:48;;;;;;;9.68;7.35;;;;;;;2.58;75.87;96053.64;1742590;82;21047;-82
2021/11/25 09:22:15;;;;;;;10.68;8.05;;;;;;;2.69;75.45;96042.41;1742753;82;20950;-82
2021/11/25 09:24:42;;;;;;;9.58;6.67;;;;;;;2.81;75.53;96043.86;1742497;82;20985;-82
2021/11/25 09:27:08;;;;;;;10.25;7.90;;;;;;;2.88;75.38;96037.19;1742742;82;20992;-82
2021/11/25 09:29:34;;;;;;;8.50;6.17;;;;;;;2.96;75.08;96030.08;1737437;82;21081;-82
2021/11/25 09:32:00;;;;;;;8.13;6.20;;;;;;;3.03;75.21;96033.67;1732806;83;20985;-82
2021/11/25 09:34:26;;;;;;;7.00;6.12;;;;;;;3.13;75.33;96026.73;1733076;83;21063;-82
2021/11/25 09:36:51;;;;;;;10.48;7.17;;;;;;;3.23;75.09;96020.24;1733016;83;21073;-82
2021/11/25 09:39:17;;;;;;;10.40;6.65;;;;;;;3.31;74.96;96021.63;1732921;83;20965;-82
2021/11/25 09:41:43;;;;;;;9.38;6.70;;;;;;;3.39;74.89;96005.47;1733039;83;20992;-83
2021/11/25 09:44:09;;;;;;;7.42;5.30;;;;;;;3.47;75.23;96010.22;1707956;83;21375;-82
2021/11/25 09:46:35;;;;;;;8.33;6.42;;;;;;;3.56;74.95;96003.38;1707956;83;20993;-82
2021/11/25 09:49:02;;;;;;;8.60;5.92;;;;;;;3.65;74.33;95997.38;1733038;83;20997;-82
2021/11/25 09:51:27;;;;;;;11.03;6.62;;;;;;;3.74;74.73;95998.22;1732927;83;21097;-81
2021/11/25 09:53:54;;;;;;;9.50;7.55;;;;;;;3.83;73.90;95985.30;1732921;83;21081;-82
2021/11/25 09:56:20;;;;;;;8.50;6.62;;;;;;;3.94;74.59;95994.55;1733106;83;21033;-82
2021/11/25 09:58:47;;;;;;;9.15;6.12;;;;;;;4.01;73.92;95965.17;1732994;83;21411;-81
2021/11/25 10:01:18;;;;;;;7.78;6.47;;;;;;;4.09;74.22;95954.48;1732986;83;21024;-82
2021/11/25 10:03:54;;;;;;;8.85;6.55;;;;;;;4.16;74.27;95943.91;1732913;83;21029;-81
2021/11/25 10:06:11;;;;;;;9.10;6.72;;;;;;;4.29;74.62;95934.48;1729929;83;21080;-81
2021/11/25 10:08:43;;;;;;;8.10;6.12;;;;;;;4.43;74.67;95937.77;1740175;80;21016;-81
2021/11/25 10:11:19;;;;;;;7.90;5.62;;;;;;;4.57;73.25;95936.39;1764817;80;20940;-82
2021/11/25 10:14:04;;;;;;;6.78;5.37;;;;;;;4.72;73.02;95930.97;1714458;83;21049;-82
2021/11/25 10:16:42;;;;;;;6.28;4.87;;;;;;;4.82;73.27;95929.53;1697252;84;20966;-81
2021/11/25 10:19:15;;;;;;;6.60;5.28;;;;;;;4.95;73.55;95932.47;1714634;83;20978;-82
2021/11/25 10:21:56;;;;;;;7.08;5.35;;;;;;;5.09;73.89;95935.72;1714661;84;21017;-82
2021/11/25 10:24:43;;;;;;;7.58;5.70;;;;;;;5.23;74.29;95938.64;1714623;83;21001;-82
2021/11/25 10:27:17;;;;;;;6.05;4.92;;;;;;;5.33;74.09;95935.41;1714549;84;21054;-82
2021/11/25 10:29:46;;;;;;;5.55;4.90;;;;;;;5.43;74.29;95924.00;1721700;83;21085;-82
2021/11/25 10:32:20;;;;;;;7.87;6.15;;;;;;;5.51;73.38;95920.60;1730812;83;21002;-82
2021/11/25 10:35:09;;;;;;;7.83;5.95;;;;;;;5.58;73.20;95909.19;1730833;83;21124;-82
2021/11/25 10:37:25;;;;;;;6.87;5.37;;;;;;;5.63;73.40;95912.07;1728440;83;21332;-82
2021/11/25 10:42:35;;;;;;;7.05;5.08;;;;;;;5.78;73.68;95901.42;1757757;82;21005;-82
2021/11/25 10:45:01;;;;;;;7.12;5.60;;;;;;;5.85;73.36;95901.08;1757559;82;21336;-81
2021/11/25 10:47:28;;;;;;;6.20;5.03;;;;;;;5.93;73.29;95889.50;1757490;82;21100;-82
2021/11/25 10:49:59;;;;;;;6.58;5.33;;;;;;;5.98;72.80;95887.22;1757814;81;21348;-82
2021/11/25 10:52:41;;;;;;;8.00;5.30;;;;;;;6.01;72.71;95885.59;1757482;81;21455;-82
2021/11/25 10:55:18;;;;;;;8.43;5.80;;;;;;;6.02;72.77;95873.54;1756882;82;21065;-82
2021/11/25 10:58:01;;;;;;;6.67;5.20;;;;;;;6.06;72.59;95871.43;1757471;82;20949;-82
2021/11/25 11:00:39;;;;;;;8.08;5.05;;;;;;;6.07;71.89;95864.81;1756671;81;21016;-82
2021/11/25 11:03:23;;;;;;;8.08;6.03;;;;;;;6.10;72.31;95861.89;1757858;82;21022;-82
2021/11/25 11:06:01;;;;;;;6.53;5.28;;;;;;;6.14;72.07;95864.45;1757289;82;21538;-82
2021/11/25 11:08:30;;;;;;;5.90;4.83;;;;;;;6.25;72.03;95860.23;1757620;82;21006;-82
2021/11/25 11:11:03;;;;;;;6.28;5.20;;;;;;;6.35;72.04;95855.37;1757797;81;21479;-82
2021/11/25 11:13:43;;;;;;;7.40;5.35;;;;;;;6.41;72.10;95856.78;1757531;82;21440;-82
2021/11/25 11:21:49;;;;;;;6.37;5.20;;;;;;;6.55;71.11;95843.64;1757707;82;21005;-83
2021/11/25 11:24:30;;;;;;;6.37;4.95;;;;;;;6.50;70.72;95854.45;1757556;82;21013;-82
2021/11/25 11:26:59;;;;;;;6.45;5.15;;;;;;;6.47;69.63;95835.93;1757793;82;21084;-82
2021/11/25 11:29:27;;;;;;;6.55;5.65;;;;;;;6.48;70.95;95823.34;1758371;81;21017;-82
2021/11/25 11:31:57;;;;;;;7.60;4.92;;;;;;;6.50;70.45;95814.45;1760596;81;20985;-82
2021/11/25 11:34:22;;;;;;;7.50;4.92;;;;;;;6.52;69.39;95815.59;1765537;78;21043;-83
2021/11/25 11:36:56;;;;;;;6.58;5.45;;;;;;;6.54;69.21;95804.13;1782510;80;21067;-83
2021/11/25 11:39:22;;;;;;;6.08;5.12;;;;;;;6.56;69.77;95797.50;1759572;81;21025;-83
2021/11/25 11:41:51;;;;;;;6.90;5.25;;;;;;;6.59;69.99;95790.70;1760685;81;21028;-83
2021/11/25 11:44:21;;;;;;;6.87;4.97;;;;;;;6.53;69.99;95780.58;1760685;81;20985;-83
2021/11/25 11:46:45;;;;;;;5.08;4.20;;;;;;;6.42;68.64;95774.52;1760221;81;21005;-82
2021/11/25 11:49:11;;;;;;;6.22;5.55;;;;;;;6.30;69.49;95768.13;1760664;81;21040;-83